Weather at Balder A Platform

Public forecast

Using degrees Celsius for public forecast. Weather courtesy of forecast.io.

Closest aviation weather report (METAR) to Balder A Platform

Closest report is Ula Platform, 15.8 nm (29.2 km) ESE. Retrieved 2021/10/22 03:20 UTC (33 minutes ago):

ENLA 220320Z AUTO 29021KT 9999NDV SCT029/// SCT076/// BKN096/// 08/03 Q0997 W///S6

Closest aviation forecast (TAF) to Balder A Platform

Closest forecast is Oseberg A Platform, 79.4 nm (147.0 km) N. Retrieved 2021-10-22 03:57 UTC (0 seconds ago):

TAF TAF ENOA 220200Z 2203/2303 33030G40KT 9999 -SHRA FEW015TCU SCT025 TEMPO 2203/2214 32040G50KT SHRA BKN014CB BECMG 2222/2224 32020KT BECMG 2301/2303 29010KT